createdAt,value
2023-02-06T00:01:50.385Z,8.67
2023-02-06T00:04:18.218Z,6.23
2023-02-06T00:06:46.087Z,11.83
2023-02-06T00:09:13.599Z,12.80
2023-02-06T00:11:43.867Z,12.80
2023-02-06T00:14:11.426Z,8.70
2023-02-06T00:16:38.945Z,6.83
2023-02-06T00:19:06.522Z,9.27
2023-02-06T00:21:34.587Z,8.40
2023-02-06T00:24:03.308Z,7.30
2023-02-06T00:26:31.714Z,4.10
2023-02-06T00:28:59.399Z,5.13
2023-02-06T00:31:26.944Z,4.53
2023-02-06T00:33:54.413Z,4.00
2023-02-06T00:36:21.964Z,5.47
2023-02-06T00:38:49.746Z,6.07
2023-02-06T00:41:17.287Z,5.87
2023-02-06T00:43:44.779Z,4.47
2023-02-06T00:46:12.876Z,3.70
2023-02-06T00:48:42.094Z,4.37
2023-02-06T00:51:09.620Z,4.87
2023-02-06T00:53:38.076Z,3.90
2023-02-06T00:56:06.054Z,3.20
2023-02-06T00:58:33.748Z,3.43
2023-02-06T01:01:01.306Z,2.83
2023-02-06T01:03:28.799Z,3.30
2023-02-06T01:05:56.270Z,3.10
2023-02-06T01:08:23.813Z,3.83
2023-02-06T01:10:52.619Z,3.87
2023-02-06T01:13:20.377Z,3.37
2023-02-06T01:15:50.789Z,2.50
2023-02-06T01:18:18.794Z,3.70
2023-02-06T01:20:46.282Z,2.90
2023-02-06T01:23:13.892Z,3.70
2023-02-06T01:25:41.405Z,4.47
2023-02-06T01:28:09.501Z,4.03
2023-02-06T01:30:37.146Z,5.40
2023-02-06T01:33:04.724Z,6.73
2023-02-06T01:35:32.217Z,5.93
2023-02-06T01:38:00.959Z,8.00
2023-02-06T01:40:28.433Z,10.27
2023-02-06T01:42:57.794Z,10.67
2023-02-06T01:45:27.815Z,5.47
2023-02-06T01:48:04.987Z,7.17
2023-02-06T01:50:35.009Z,4.27
2023-02-06T01:53:05.061Z,3.40
2023-02-06T01:55:33.786Z,5.57
2023-02-06T01:58:03.128Z,3.40
2023-02-06T02:00:30.855Z,2.67
2023-02-06T02:02:58.476Z,3.10
2023-02-06T02:05:26.192Z,8.97
2023-02-06T02:08:16.989Z,12.20
2023-02-06T02:10:45.554Z,11.07
2023-02-06T02:13:13.035Z,9.40
2023-02-06T02:15:57.206Z,8.77
2023-02-06T02:19:02.918Z,10.23
2023-02-06T02:22:11.019Z,25.53
2023-02-06T02:24:50.199Z,22.40
2023-02-06T02:27:44.370Z,20.70
2023-02-06T02:30:53.529Z,20.67
2023-02-06T02:33:33.178Z,17.47
2023-02-06T02:36:28.170Z,10.67
2023-02-06T02:39:17.115Z,11.07
2023-02-06T02:42:04.163Z,6.17
2023-02-06T02:44:57.361Z,7.80
2023-02-06T02:47:32.509Z,5.33
2023-02-06T02:50:03.423Z,4.60
2023-02-06T02:52:30.927Z,3.67
2023-02-06T02:54:58.364Z,5.43
2023-02-06T02:57:31.469Z,5.30
2023-02-06T03:00:02.083Z,5.70
2023-02-06T03:02:39.497Z,4.83
2023-02-06T03:05:11.859Z,4.00
2023-02-06T03:08:26.783Z,8.63
2023-02-06T03:11:09.459Z,7.80
2023-02-06T03:13:58.250Z,8.23
2023-02-06T03:16:41.859Z,9.90
2023-02-06T03:19:19.707Z,10.10
2023-02-06T03:21:48.478Z,7.70
2023-02-06T03:24:24.743Z,7.73
2023-02-06T03:26:58.691Z,7.50
2023-02-06T03:29:29.641Z,8.33
2023-02-06T03:32:27.313Z,14.70
2023-02-06T03:35:27.675Z,11.30
2023-02-06T03:37:55.169Z,10.73
2023-02-06T03:40:23.138Z,52.27
2023-02-06T03:42:56.341Z,26.20
2023-02-06T03:45:28.733Z,12.13
2023-02-06T03:48:03.534Z,8.00
2023-02-06T03:50:33.185Z,10.27
2023-02-06T03:53:03.047Z,11.60
2023-02-06T03:55:30.907Z,7.40
2023-02-06T03:58:08.173Z,12.73
2023-02-06T04:00:37.031Z,8.37
2023-02-06T04:03:05.582Z,9.77
2023-02-06T04:05:33.617Z,7.27
2023-02-06T04:08:01.192Z,5.23
2023-02-06T04:10:28.803Z,11.37
2023-02-06T04:12:56.486Z,11.77
2023-02-06T04:15:24.750Z,21.10
2023-02-06T04:18:00.717Z,26.33
2023-02-06T04:20:29.837Z,19.83
2023-02-06T04:22:58.680Z,14.60
2023-02-06T04:25:26.755Z,11.47
2023-02-06T04:27:54.274Z,10.43
2023-02-06T04:30:22.073Z,14.30
2023-02-06T04:32:49.588Z,14.07
2023-02-06T04:35:17.119Z,14.60
2023-02-06T04:37:44.614Z,15.10
2023-02-06T04:40:13.018Z,11.43
2023-02-06T04:42:40.599Z,14.67
2023-02-06T04:45:08.908Z,19.53
2023-02-06T04:47:36.492Z,16.27
2023-02-06T04:50:05.991Z,12.17
2023-02-06T04:52:33.662Z,13.70
2023-02-06T04:55:01.196Z,19.17
2023-02-06T04:57:28.787Z,17.40
2023-02-06T04:59:58.690Z,12.87
2023-02-06T05:02:26.229Z,12.47
2023-02-06T05:04:54.020Z,26.53
2023-02-06T05:07:21.521Z,26.63
2023-02-06T05:09:49.030Z,26.33
2023-02-06T05:12:16.583Z,22.43
2023-02-06T05:14:44.027Z,16.03
2023-02-06T05:17:11.692Z,15.70
2023-02-06T05:19:39.212Z,14.47
2023-02-06T05:22:06.646Z,18.53
2023-02-06T05:24:34.129Z,21.07
2023-02-06T05:27:04.119Z,19.03
2023-02-06T05:29:31.682Z,14.60
2023-02-06T05:31:59.344Z,14.40
2023-02-06T05:34:27.010Z,18.60
2023-02-06T05:36:54.567Z,14.70
2023-02-06T05:39:21.971Z,16.63
2023-02-06T05:41:49.504Z,21.70
2023-02-06T05:44:17.004Z,38.83
2023-02-06T05:46:44.552Z,50.40
2023-02-06T05:49:12.000Z,17.33
2023-02-06T05:51:39.415Z,35.33
2023-02-06T05:54:07.189Z,30.50
2023-02-06T05:56:34.750Z,63.63
2023-02-06T05:59:02.216Z,53.20
2023-02-06T06:01:29.746Z,21.43
2023-02-06T06:03:57.506Z,37.80
2023-02-06T06:06:25.018Z,20.27
2023-02-06T06:08:52.599Z,27.27
2023-02-06T06:11:20.070Z,22.30
2023-02-06T06:13:47.558Z,16.20
2023-02-06T06:16:15.090Z,27.47
2023-02-06T06:18:42.593Z,21.50
2023-02-06T06:21:10.022Z,12.07
2023-02-06T06:23:37.518Z,16.03
2023-02-06T06:26:05.426Z,16.33
2023-02-06T06:28:35.062Z,18.90
2023-02-06T06:31:05.329Z,29.10
2023-02-06T06:33:33.538Z,19.30
2023-02-06T06:36:01.283Z,13.63
2023-02-06T06:38:28.776Z,25.93
2023-02-06T06:40:56.189Z,9.43
2023-02-06T06:43:24.206Z,14.17
2023-02-06T06:45:51.837Z,12.77
2023-02-06T06:48:19.420Z,8.57
2023-02-06T06:50:46.858Z,7.27
2023-02-06T06:53:14.315Z,10.53
2023-02-06T06:55:41.841Z,13.63
2023-02-06T06:58:09.292Z,16.90
2023-02-06T07:00:38.640Z,10.17
2023-02-06T07:03:06.962Z,14.43
2023-02-06T07:05:35.236Z,12.30
2023-02-06T07:08:02.874Z,11.47
2023-02-06T07:10:30.338Z,13.37
2023-02-06T07:12:57.876Z,12.63
2023-02-06T07:15:25.311Z,12.97
2023-02-06T07:17:52.757Z,9.13
2023-02-06T07:20:20.398Z,8.47
2023-02-06T07:22:50.441Z,15.80
2023-02-06T07:25:21.418Z,8.07
2023-02-06T07:27:48.969Z,6.50
2023-02-06T07:30:16.723Z,11.80
2023-02-06T07:32:44.347Z,7.43
2023-02-06T07:35:11.874Z,9.47
2023-02-06T07:37:39.376Z,12.83
2023-02-06T07:40:07.556Z,13.37
2023-02-06T07:42:35.092Z,15.97
2023-02-06T07:45:10.852Z,14.83
2023-02-06T07:47:38.352Z,7.53
2023-02-06T07:50:06.848Z,16.97
2023-02-06T07:52:34.262Z,12.23
2023-02-06T07:55:01.757Z,8.53
2023-02-06T07:57:29.297Z,9.13
2023-02-06T07:59:56.820Z,15.17
2023-02-06T08:02:24.975Z,49.60
2023-02-06T08:04:54.702Z,14.80
2023-02-06T08:07:22.334Z,17.87
2023-02-06T08:09:49.740Z,14.10
2023-02-06T08:12:17.233Z,19.87
2023-02-06T08:14:45.886Z,9.93
2023-02-06T08:17:13.986Z,9.10
2023-02-06T08:19:41.509Z,15.40
2023-02-06T08:22:08.984Z,14.93
2023-02-06T08:24:36.742Z,12.83
2023-02-06T08:27:04.368Z,17.73
2023-02-06T08:29:40.379Z,10.63
2023-02-06T08:32:10.623Z,9.93
2023-02-06T08:34:40.101Z,17.53
2023-02-06T08:37:08.041Z,14.03
2023-02-06T08:39:35.521Z,11.83
2023-02-06T08:42:03.191Z,12.40
2023-02-06T08:44:30.921Z,8.33
2023-02-06T08:47:09.335Z,11.93
2023-02-06T08:49:38.219Z,10.07
2023-02-06T08:52:08.756Z,12.03
2023-02-06T08:54:38.592Z,11.00
2023-02-06T08:57:06.813Z,5.80
2023-02-06T08:59:34.914Z,5.23
2023-02-06T09:02:02.585Z,8.43
2023-02-06T09:04:31.942Z,17.43
2023-02-06T09:06:59.488Z,7.80
2023-02-06T09:09:29.308Z,9.83
2023-02-06T09:12:02.146Z,14.20
2023-02-06T09:14:30.526Z,7.77
2023-02-06T09:16:58.433Z,12.63
2023-02-06T09:19:26.865Z,7.43
2023-02-06T09:22:14.247Z,8.37
2023-02-06T09:24:41.818Z,6.13
2023-02-06T09:27:09.327Z,5.87
2023-02-06T09:29:36.897Z,5.80
2023-02-06T09:32:04.689Z,3.23
2023-02-06T09:34:32.173Z,7.67
2023-02-06T09:37:03.714Z,3.37
2023-02-06T09:39:32.350Z,8.37
2023-02-06T09:42:27.059Z,4.53
2023-02-06T09:45:23.047Z,4.57
2023-02-06T09:48:16.860Z,5.87
2023-02-06T09:51:27.522Z,7.63
2023-02-06T09:54:29.811Z,7.00
2023-02-06T09:57:15.799Z,7.47
2023-02-06T10:00:00.492Z,6.70
2023-02-06T10:03:26.496Z,5.20
2023-02-06T10:06:09.457Z,4.37
2023-02-06T10:08:57.757Z,5.73
2023-02-06T10:11:50.550Z,6.97
2023-02-06T10:43:51.478Z,5.57
2023-02-06T10:46:51.064Z,6.63
2023-02-06T10:49:36.382Z,3.40
2023-02-06T10:52:29.248Z,3.80
2023-02-06T10:55:04.555Z,12.37
2023-02-06T10:57:32.777Z,5.17
2023-02-06T11:00:07.432Z,4.13
2023-02-06T11:03:06.174Z,3.07
2023-02-06T11:05:35.320Z,2.80
2023-02-06T11:08:20.868Z,4.07
2023-02-06T11:10:49.122Z,4.27
2023-02-06T11:13:35.316Z,3.17
2023-02-06T11:16:10.457Z,6.80
2023-02-06T11:18:42.466Z,6.87
2023-02-06T11:21:12.975Z,7.20
2023-02-06T11:23:43.938Z,17.40
2023-02-06T11:26:23.203Z,9.53
2023-02-06T11:28:58.499Z,12.50
2023-02-06T11:31:45.613Z,13.30
2023-02-06T11:34:28.212Z,6.77
2023-02-06T11:36:59.272Z,8.23
2023-02-06T11:39:34.918Z,5.30
2023-02-06T11:42:15.445Z,6.17
2023-02-06T11:44:45.316Z,4.77
2023-02-06T11:47:37.920Z,5.03
2023-02-06T11:50:17.107Z,9.87
2023-02-06T11:52:47.489Z,3.60
2023-02-06T11:55:23.508Z,3.30
2023-02-06T11:58:14.234Z,2.80
2023-02-06T12:00:56.687Z,5.73
2023-02-06T12:03:50.507Z,3.03
2023-02-06T12:06:40.039Z,5.10
2023-02-06T12:09:13.434Z,4.33
2023-02-06T12:12:36.117Z,13.27
2023-02-06T12:15:39.782Z,2.97
2023-02-06T12:18:14.670Z,2.03
2023-02-06T12:20:59.661Z,31.53
2023-02-06T12:23:36.679Z,19.20
2023-02-06T12:26:13.373Z,8.03
2023-02-06T12:29:15.560Z,10.30
2023-02-06T12:32:05.692Z,17.83
2023-02-06T12:34:54.012Z,11.70
2023-02-06T12:37:41.190Z,3.93
2023-02-06T12:40:51.986Z,7.90
2023-02-06T12:43:20.533Z,24.33
2023-02-06T12:46:22.697Z,7.67
2023-02-06T12:48:57.257Z,7.53
2023-02-06T12:51:45.895Z,3.80
2023-02-06T12:54:39.266Z,7.73
2023-02-06T12:57:22.028Z,3.53
2023-02-06T13:00:33.316Z,2.37
2023-02-06T13:03:28.013Z,3.37
2023-02-06T13:06:39.497Z,4.33
2023-02-06T13:09:09.213Z,2.50
2023-02-06T13:11:40.714Z,2.40
2023-02-06T13:14:25.503Z,7.63
2023-02-06T13:17:14.541Z,19.27
2023-02-06T13:19:41.908Z,14.17
2023-02-06T13:22:09.243Z,6.60
2023-02-06T13:24:39.876Z,35.83
2023-02-06T13:27:08.235Z,7.37
2023-02-06T13:29:48.825Z,27.03
2023-02-06T13:32:19.747Z,17.23
2023-02-06T13:35:02.301Z,9.07
2023-02-06T13:37:39.668Z,7.50
2023-02-06T13:40:35.287Z,14.40
2023-02-06T13:43:10.134Z,49.00
2023-02-06T13:45:52.767Z,58.13
2023-02-06T13:49:06.225Z,24.90
2023-02-06T13:52:06.306Z,37.90
2023-02-06T13:55:12.470Z,34.10
2023-02-06T13:58:30.205Z,18.50
2023-02-06T14:00:59.461Z,14.13
2023-02-06T14:03:31.811Z,14.93
2023-02-06T14:06:07.997Z,13.57
2023-02-06T14:09:01.612Z,12.10
2023-02-06T14:12:20.258Z,10.20
2023-02-06T14:15:08.513Z,9.73
2023-02-06T14:17:51.712Z,10.50
2023-02-06T14:20:58.758Z,7.23
2023-02-06T14:24:00.088Z,7.80
2023-02-06T14:27:25.190Z,14.00
2023-02-06T14:30:02.593Z,22.80
2023-02-06T14:32:39.357Z,25.70
2023-02-06T14:35:27.894Z,16.37
2023-02-06T14:38:19.503Z,24.00
2023-02-06T14:40:52.814Z,26.47
2023-02-06T14:43:28.848Z,21.37
2023-02-06T14:46:07.555Z,15.17
2023-02-06T14:48:55.898Z,11.73
2023-02-06T14:51:34.167Z,15.10
2023-02-06T14:54:27.106Z,8.03
2023-02-06T14:57:04.768Z,11.33
2023-02-06T14:59:32.520Z,17.90
2023-02-06T15:02:14.409Z,28.10
2023-02-06T15:04:48.075Z,26.93
2023-02-06T15:07:28.833Z,18.30
2023-02-06T15:10:10.797Z,30.67
2023-02-06T15:12:39.073Z,17.63
2023-02-06T15:15:26.567Z,11.57
2023-02-06T15:18:06.501Z,7.60
2023-02-06T15:20:40.755Z,7.43
2023-02-06T15:23:48.896Z,6.43
2023-02-06T15:26:28.426Z,6.70
2023-02-06T15:29:02.037Z,5.90
2023-02-06T15:31:30.853Z,7.03
2023-02-06T15:34:00.783Z,5.87
2023-02-06T15:36:37.380Z,7.23
2023-02-06T15:39:08.095Z,8.07
2023-02-06T15:41:56.666Z,16.73
2023-02-06T15:44:36.107Z,39.30
2023-02-06T15:47:08.003Z,31.47
2023-02-06T15:49:45.787Z,54.93
2023-02-06T15:52:31.141Z,37.73
2023-02-06T15:55:01.328Z,40.43
2023-02-06T15:57:43.830Z,51.33
2023-02-06T16:00:25.113Z,49.67
2023-02-06T16:02:58.680Z,31.47
2023-02-06T16:05:46.300Z,44.70
2023-02-06T16:08:23.277Z,21.27
2023-02-06T16:11:27.834Z,12.60
2023-02-06T16:13:57.724Z,11.17
2023-02-06T16:16:27.895Z,11.90
2023-02-06T16:18:58.614Z,17.20
2023-02-06T16:21:32.475Z,20.00
2023-02-06T16:24:00.257Z,21.73
2023-02-06T16:26:41.035Z,20.70
2023-02-06T16:29:17.357Z,16.93
2023-02-06T16:31:45.977Z,14.77
2023-02-06T16:34:42.228Z,15.47
2023-02-06T16:37:22.085Z,18.50
2023-02-06T16:39:49.793Z,16.90
2023-02-06T16:42:42.042Z,30.13
2023-02-06T16:45:29.929Z,26.90
2023-02-06T16:48:02.354Z,24.07
2023-02-06T16:50:31.380Z,35.73
2023-02-06T16:53:05.065Z,83.77
2023-02-06T16:55:52.715Z,56.80
2023-02-06T16:58:26.228Z,43.83
2023-02-06T17:00:54.727Z,43.83
2023-02-06T17:03:24.146Z,46.97
2023-02-06T17:05:54.381Z,53.40
2023-02-06T17:08:26.010Z,58.90
2023-02-06T17:10:53.978Z,56.63
2023-02-06T17:13:26.596Z,66.63
2023-02-06T17:15:54.337Z,81.57
2023-02-06T17:18:23.681Z,151.90
2023-02-06T17:20:56.718Z,50.17
2023-02-06T17:23:27.341Z,329.03
2023-02-06T17:26:06.261Z,75.03
2023-02-06T17:28:37.480Z,26.07
2023-02-06T17:31:08.079Z,16.73
2023-02-06T17:33:40.447Z,23.57
2023-02-06T17:36:40.909Z,76.00
2023-02-06T17:39:08.994Z,68.90
2023-02-06T17:41:36.587Z,78.27
2023-02-06T17:44:05.852Z,59.57
2023-02-06T17:46:33.532Z,53.73
2023-02-06T17:49:02.387Z,52.83
2023-02-06T17:51:30.244Z,76.03
2023-02-06T17:53:59.172Z,71.90
2023-02-06T17:56:27.023Z,102.20
2023-02-06T17:58:54.490Z,100.83
2023-02-06T18:01:23.846Z,79.37
2023-02-06T18:03:51.928Z,89.47
2023-02-06T18:06:21.224Z,78.97
2023-02-06T18:08:51.170Z,47.20
2023-02-06T18:11:23.846Z,118.93
2023-02-06T18:13:56.124Z,93.90
2023-02-06T18:16:28.975Z,83.30
2023-02-06T18:19:00.135Z,72.63
2023-02-06T18:21:30.985Z,94.00
2023-02-06T18:23:59.371Z,87.77
2023-02-06T18:26:27.813Z,72.67
2023-02-06T18:28:57.571Z,24.00
2023-02-06T18:31:33.441Z,102.97
2023-02-06T18:34:08.910Z,52.30
2023-02-06T18:36:38.109Z,18.70
2023-02-06T18:39:07.198Z,9.20
2023-02-06T18:41:56.619Z,19.60
2023-02-06T18:44:25.886Z,11.03
2023-02-06T18:46:54.388Z,4.90
2023-02-06T18:49:23.543Z,10.17
2023-02-06T18:51:51.856Z,11.17
2023-02-06T18:54:21.333Z,11.60
2023-02-06T18:56:50.878Z,17.77
2023-02-06T18:59:21.594Z,19.50
2023-02-06T19:01:52.001Z,13.87
2023-02-06T19:04:22.839Z,17.80
2023-02-06T19:06:52.163Z,14.17
2023-02-06T19:09:21.896Z,17.63
2023-02-06T19:11:51.089Z,31.70
2023-02-06T19:14:22.620Z,41.57
2023-02-06T19:16:52.280Z,33.57
2023-02-06T19:19:23.082Z,54.83
2023-02-06T19:21:52.189Z,22.37
2023-02-06T19:24:20.109Z,11.80
2023-02-06T19:26:52.948Z,13.70
2023-02-06T19:29:34.738Z,8.30
2023-02-06T19:32:10.813Z,10.37
2023-02-06T19:34:42.060Z,8.60
2023-02-06T19:37:13.527Z,8.00
2023-02-06T19:39:44.049Z,10.20
2023-02-06T19:42:20.403Z,6.63
2023-02-06T19:44:54.860Z,21.57
2023-02-06T19:47:26.391Z,49.37
2023-02-06T19:49:54.054Z,24.73
2023-02-06T19:52:21.785Z,36.70
2023-02-06T19:54:51.040Z,17.97
2023-02-06T19:57:40.780Z,35.10
2023-02-06T20:00:14.530Z,14.63
2023-02-06T20:02:51.475Z,23.07
2023-02-06T20:05:26.262Z,21.37
2023-02-06T20:07:57.259Z,59.83
2023-02-06T20:10:25.492Z,36.17
2023-02-06T20:12:54.892Z,19.37
2023-02-06T20:15:23.558Z,9.90
2023-02-06T20:17:52.352Z,16.97
2023-02-06T20:20:27.002Z,18.00
2023-02-06T20:22:59.268Z,16.10
2023-02-06T20:25:27.901Z,12.37
2023-02-06T20:27:56.578Z,17.90
2023-02-06T20:33:17.155Z,25.27
2023-02-06T20:35:52.809Z,15.50
2023-02-06T20:38:20.898Z,10.87
2023-02-06T20:40:54.018Z,10.67
2023-02-06T20:43:22.882Z,13.23
2023-02-06T20:45:50.497Z,15.40
2023-02-06T20:48:18.202Z,8.87
2023-02-06T20:50:45.811Z,6.77
2023-02-06T20:53:15.317Z,13.70
2023-02-06T20:55:47.314Z,13.43
2023-02-06T20:58:16.902Z,15.63
2023-02-06T21:00:45.981Z,35.60
2023-02-06T21:03:15.909Z,17.53
2023-02-06T21:05:43.625Z,25.03
2023-02-06T21:08:13.126Z,34.03
2023-02-06T21:10:40.810Z,45.40
2023-02-06T21:13:08.826Z,42.63
2023-02-06T21:15:40.110Z,29.00
2023-02-06T21:18:08.856Z,22.90
2023-02-06T21:20:36.652Z,34.47
2023-02-06T21:23:06.503Z,30.70
2023-02-06T21:25:37.111Z,12.23
2023-02-06T21:28:07.025Z,14.90
2023-02-06T21:30:35.482Z,14.97
2023-02-06T21:33:04.772Z,18.67
2023-02-06T21:35:33.853Z,19.70
2023-02-06T21:38:01.390Z,16.57
2023-02-06T21:40:30.002Z,13.93
2023-02-06T21:42:59.872Z,16.33
2023-02-06T21:45:27.420Z,18.90
2023-02-06T21:47:55.443Z,21.90
2023-02-06T21:50:24.702Z,36.13
2023-02-06T21:52:52.182Z,23.43
2023-02-06T21:55:19.688Z,17.40
2023-02-06T21:57:47.668Z,17.83
2023-02-06T22:00:15.697Z,12.27
2023-02-06T22:02:43.735Z,11.87
2023-02-06T22:05:11.241Z,11.33
2023-02-06T22:07:38.965Z,14.03
2023-02-06T22:10:07.964Z,12.07
2023-02-06T22:12:36.778Z,9.27
2023-02-06T22:15:04.736Z,10.53
2023-02-06T22:17:32.244Z,17.63
2023-02-06T22:20:19.736Z,28.67
2023-02-06T22:22:48.675Z,25.57
2023-02-06T22:25:16.522Z,13.23
2023-02-06T22:27:44.056Z,11.83
2023-02-06T22:30:12.984Z,10.60
2023-02-06T22:32:41.054Z,14.00
2023-02-06T22:35:08.952Z,14.07
2023-02-06T22:37:36.555Z,14.37
2023-02-06T22:40:07.374Z,21.07
2023-02-06T22:42:35.406Z,26.70
2023-02-06T22:45:03.245Z,19.37
2023-02-06T22:47:32.384Z,13.73
2023-02-06T22:49:59.899Z,18.70
2023-02-06T22:52:46.077Z,12.33
2023-02-06T22:55:13.548Z,14.27
2023-02-06T22:57:41.733Z,12.37
2023-02-06T23:00:14.799Z,10.37
2023-02-06T23:02:42.721Z,22.20
2023-02-06T23:05:10.687Z,43.47
2023-02-06T23:07:38.288Z,32.17
2023-02-06T23:10:06.318Z,20.03
2023-02-06T23:12:33.793Z,15.93
2023-02-06T23:15:01.255Z,13.30
2023-02-06T23:17:28.713Z,16.73
2023-02-06T23:19:56.146Z,13.63
2023-02-06T23:22:23.661Z,14.20
2023-02-06T23:24:51.879Z,11.87
2023-02-06T23:27:21.018Z,9.93
2023-02-06T23:29:48.434Z,10.60
2023-02-06T23:32:15.855Z,11.03
2023-02-06T23:34:43.258Z,10.23
2023-02-06T23:37:10.784Z,11.17
2023-02-06T23:39:38.364Z,12.87
2023-02-06T23:42:05.996Z,13.07
2023-02-06T23:44:33.476Z,18.97
2023-02-06T23:47:00.957Z,17.97
2023-02-06T23:49:28.452Z,17.50
2023-02-06T23:51:55.897Z,15.07
2023-02-06T23:54:23.461Z,17.60
2023-02-06T23:56:51.003Z,17.60
2023-02-06T23:59:18.561Z,26.90
